SLCB/CBB METAR and TAF weather

Enter ICAO airport designator
Station Type Date Time Source
SLCB METAR 2021/09/24 06:00 UTC NOAA

SLCB 240600Z 14005KT 9999 FEW033 12/04 Q1028


Station Type Date Time Source
SLCB Decoded METAR 2021/09/24 06:00 UTC NOAA

Cochabamba, Bolivia (SLCB) 17-25S 066-11W 2570M
Sep 24, 2021 - 02:00 AM EDT / 2021.09.24 0600 UTC
Wind: from the SE (140 degrees) at 6 MPH (5 KT):0
Visibility: greater than 7 mile(s):0
Sky conditions: mostly clear
Temperature: 53 F (12 C)
Dew Point: 39 F (4 C)
Relative Humidity: 57%
Pressure (altimeter): 30.36 in. Hg (1028 hPa)
ob: SLCB 240600Z 14005KT 9999 FEW033 12/04 Q1028
cycle: 6

Station Type Date Time Source
SLCB TAF 2021/09/24 06:45 UTC NOAA

TAF TAF SLCB 240400Z 2406/2506 00000KT 9999 FEW030 TX27/2419Z TN09/2411Z
BECMG 2416/1418 24010KT FEW036 FEW040CB
TEMPO 2421/2423 06012KT

Example: see airport list